Latest Coastal Weather Observations for Norfolk Island

IDN60701

Issued at 8:11 pm EST Friday 29 July 2016 (issued every 10 minutes, with the page automatically refreshed every 10 minutes)

About coastal observations | Map of coastal stations | Coastal observations for NSW | Marine services | Other Formats
Station Details ID: 200288 Name: NORFOLK ISLAND AERO Lat: -29.04 Lon: 167.94 Height: 111.73 m
Data from the previous 72 hours. | See also: Recent months at Norfolk Island
Date/Time
EST
Temp
°C
Wind Pressure Rain since
9am
mm
Weather Cloud Vis
km
Sea
Height
m
Swell
Dir  Spd
kts
Gust
kts
hPa Trend Height
m
Period
s
Dir
29/08:00pm 15.2 CALM 0 0 1021.1 - 0.0 - Mostly cloudy 10 - - - -
29/07:30pm 15.3 SSE 4 6 1021.0 - 0.0 - Partly cloudy 10 - - - -
29/07:00pm 15.2 S 5 7 1020.9 - 0.0 - Partly cloudy 10 - - - -
29/06:30pm 15.8 S 5 6 1020.7 - 0.0 - Partly cloudy 10 - - - -
29/06:00pm 16.4 S 7 10 1020.4 - 0.0 - Cloudy 10 - - - -
29/05:30pm 16.1 SSW 7 9 1019.9 - 0.0 - Partly cloudy 10 - - - -
29/05:00pm 15.9 S 6 9 1019.7 - 0.0 - Mostly cloudy 10 - - - -
29/04:30pm 15.8 S 7 9 1019.4 - 0.0 - Partly cloudy 10 - - - -
29/04:00pm 16.2 SSE 7 10 1019.3 - 0.0 - Partly cloudy 10 - - - -
29/03:30pm 17.3 S 8 12 1019.1 - 0.0 - Partly cloudy 10 - - - -
29/03:00pm 17.6 S 8 10 1019.1 - 0.0 - Mostly cloudy 10 - - - -
29/02:30pm 17.7 S 9 15 1019.1 - 0.0 - Mostly clear 10 - - - -
29/02:00pm 18.1 S 9 12 1019.2 - 0.0 - Mostly clear 10 - - - -
29/01:30pm 18.5 S 9 13 1019.2 - 0.0 - Mostly clear 10 - - - -
29/01:00pm 18.1 S 10 14 1019.4 - 0.0 - Mostly clear 10 - - - -
29/12:30pm 18.6 SSW 9 12 1019.5 - 0.0 - Mostly clear 10 - - - -
29/12:00pm 18.6 SSW 10 14 1019.6 - 0.0 - Mostly clear 10 - - - -
29/11:30am 18.5 S 10 14 1019.9 - 0.0 - Mostly clear 10 - - - -
29/11:00am 18.2 S 11 15 1020.3 - 0.0 - Mostly cloudy 10 - - - -
29/10:30am 18.9 S 9 13 1020.7 - 0.0 - Mostly clear 10 - - - -
29/10:00am 18.9 S 9 14 1021.1 - 0.0 - Mostly clear 10 - - - -
29/09:30am 18.5 S 8 10 1021.4 - 0.0 - Mostly clear 10 - - - -
29/09:00am 18.3 S 9 13 1021.6 - 0.0 - Mostly clear 10 - - - -
29/08:30am 17.8 S 8 12 1021.6 - 0.0 - Mostly clear 10 - - - -
29/08:00am 17.6 S 9 12 1021.5 - 0.4 - Cloudy 10 - - - -
29/07:30am 17.7 S 6 8 1021.3 - 0.4 - Partly cloudy 10 - - - -
29/07:00am 16.6 SSW 8 11 1021.2 - 0.4 - Partly cloudy 10 - - - -
29/06:30am 16.9 S 8 11 1021.0 - 0.4 - Partly cloudy 10 - - - -
29/06:00am 15.7 S 7 9 1020.5 - 0.4 - Partly cloudy 10 - - - -
29/05:30am 15.6 SSW 5 10 1020.1 - 0.4 - Partly cloudy 10 - - - -
29/05:00am 15.5 S 7 9 1019.7 - 0.4 - Cloudy 10 - - - -
29/04:30am 14.0 SSW 4 7 1019.3 - 0.4 - Partly cloudy 10 - - - -
29/04:00am 14.0 S 5 6 1019.0 - 0.4 - - 10 - - - -
29/03:30am 14.1 CALM 0 0 1018.5 - 0.4 - - 10 - - - -
29/03:00am 14.7 S 4 6 1018.5 - 0.4 - - 10 - - - -
29/02:30am 15.7 SSE 4 7 1018.9 - 0.4 - - 10 - - - -
29/02:00am 15.1 SSE 5 6 1019.0 - 0.4 - - 10 - - - -
29/01:30am 15.4 S 5 7 1019.1 - 0.4 - - 10 - - - -
29/01:00am 15.7 SSE 6 8 1019.4 - 0.4 - - 10 - - - -
29/12:30am 16.1 S 7 10 1019.6 - 0.4 - Partly cloudy 10 - - - -
29/12:00am 16.4 SSE 7 11 1019.6 - 0.4 - Partly cloudy 10 - - - -
 
Date/Time
EST
Temp
°C
Wind Pressure Rain since
9am
mm
Weather Cloud Vis
km
Sea
Height
m
Swell
Dir  Spd
kts
Gust
kts
hPa Trend Height
m
Period
s
Dir
28/11:30pm 16.6 S 10 15 1019.5 - 0.4 - Partly cloudy 10 - - - -
28/11:00pm 16.7 S 9 13 1019.5 - 0.4 - Mostly clear 10 - - - -
28/10:30pm 16.4 S 8 12 1019.5 - 0.4 - Partly cloudy 10 - - - -
28/10:00pm 16.9 SSE 8 13 1019.4 - 0.4 - Partly cloudy 10 - - - -
28/09:30pm 16.9 S 8 10 1019.3 - 0.4 - Partly cloudy 10 - - - -
28/09:00pm 17.0 S 7 10 1019.4 - 0.4 - Partly cloudy 10 - - - -
28/08:30pm 17.2 S 8 11 1019.2 - 0.4 - Partly cloudy 10 - - - -
28/08:00pm 17.1 S 10 14 1019.0 - 0.4 - Mostly cloudy 10 - - - -
28/07:30pm 17.2 S 11 16 1019.1 - 0.4 - Partly cloudy 10 - - - -
28/07:00pm 17.2 S 9 11 1019.1 - 0.4 - Partly cloudy 10 - - - -
28/06:30pm 17.3 S 12 17 1018.5 - 0.4 - Partly cloudy 10 - - - -
28/06:00pm 17.3 S 10 15 1018.3 - 0.4 - Partly cloudy 10 - - - -
28/05:30pm 17.5 S 11 16 1017.9 - 0.4 - - 10 - - - -
28/05:00pm 17.4 S 10 14 1017.6 - 0.4 - - 10 - - - -
28/04:30pm 17.2 S 9 13 1017.1 - 0.4 - - 10 - - - -
28/04:00pm 18.0 S 15 20 1017.1 - 0.4 - - 10 - - - -
28/03:30pm 18.3 S 14 18 1017.0 - 0.2 - - 10 - - - -
28/03:00pm 18.5 S 9 14 1016.7 - 0.2 - Mostly clear 10 - - - -
28/02:30pm 18.5 S 12 17 1016.6 - 0.2 - - 10 - - - -
28/02:00pm 18.6 S 15 21 1016.3 - 0.2 - Cloudy 10 - - - -
28/01:30pm 18.9 SSW 11 15 1016.7 - 0.2 - Mostly clear 10 - - - -
28/01:00pm 19.1 SW 10 15 1016.7 - 0.2 - Mostly clear 10 - - - -
28/12:30pm 19.0 SSW 13 18 1016.3 - 0.2 Rain Partly cloudy 10 - - - -
28/12:00pm 19.0 SW 11 16 1016.2 - 0.2 - Partly cloudy 10 - - - -
28/11:30am 19.0 SW 11 16 1016.4 - 0.2 Rain Mostly clear 10 - - - -
28/11:00am 19.2 SW 11 17 1017.1 - 0.2 Showers Cloudy 10 - - - -
28/10:30am 19.2 WSW 9 12 1017.1 - 0.2 Showers Mostly clear 10 - - - -
28/10:00am 18.9 WSW 6 9 1016.9 - 0.2 - Mostly clear 10 - - - -
28/09:30am 18.6 SW 10 13 1017.6 - 0.2 - Mostly clear 10 - - - -
28/09:00am 18.2 SW 8 10 1017.9 - 0.2 - Mostly clear 10 - - - -
28/08:30am 18.0 SW 10 14 1018.0 - 0.2 - Mostly clear 10 - - - -
28/08:00am 17.2 WSW 8 12 1017.7 - 10.4 Showers Cloudy 7 - - - -
28/07:30am 16.3 W 12 20 1017.8 - 9.0 Showers Partly cloudy 6 - - - -
28/07:25am 16.2 WSW 16 26 1017.9 - 8.4 Showers Mostly cloudy 4 - - - -
28/07:14am 16.7 W 17 68 1017.9 - 6.2 Showers Mostly cloudy 2 - - - -
28/07:00am 19.5 WNW 11 18 1017.1 - 2.6 - Mostly cloudy 8 - - - -
28/06:52am 19.5 WNW 12 18 1017.2 - 2.4 - Cloudy 5 - - - -
28/06:41am 19.4 WNW 11 18 1017.1 - 1.6 - Partly cloudy 8 - - - -
28/06:30am 19.4 NW 10 20 1017.0 - 1.4 - Partly cloudy 5 - - - -
28/06:21am 19.4 WNW 11 17 1017.0 - 1.0 - Cloudy 6 - - - -
28/06:08am 19.4 WNW 9 15 1016.9 - 0.4 - Partly cloudy 8 - - - -
28/06:00am 19.4 WNW 10 17 1016.9 - 0.4 - Partly cloudy 9 - - - -
28/05:50am 19.4 WNW 11 18 1016.8 - 0.2 - Partly cloudy 6 - - - -
28/05:30am 19.4 WNW 9 16 1016.6 - 0.0 - Cloudy 10 - - - -
28/05:00am 19.5 WNW 10 17 1016.6 - 0.0 Rain Mostly cloudy 10 - - - -
28/04:30am 19.4 WNW 11 18 1016.2 - 0.0 - Partly cloudy 10 - - - -
28/04:00am 19.4 WNW 12 19 1016.0 - 0.0 - Partly cloudy 10 - - - -
28/03:30am 19.4 WNW 10 17 1016.0 - 0.0 - Cloudy 10 - - - -
28/03:00am 19.3 WNW 10 16 1016.0 - 0.0 - Cloudy 10 - - - -
28/02:30am 19.1 WNW 10 16 1016.0 - 0.0 - Cloudy 10 - - - -
28/02:00am 19.2 NW 10 17 1016.1 - 0.0 - Mostly cloudy 10 - - - -
28/01:30am 19.3 NNW 9 16 1016.2 - 0.0 - Partly cloudy 10 - - - -
28/01:00am 19.3 NNW 10 17 1016.4 - 0.0 - Partly cloudy 10 - - - -
28/12:30am 19.4 NW 11 19 1017.0 - 0.0 - Cloudy 10 - - - -
28/12:00am 19.4 NNW 10 17 1017.1 - 0.0 - Partly cloudy 10 - - - -
 
Date/Time
EST
Temp
°C
Wind Pressure Rain since
9am
mm
Weather Cloud Vis
km
Sea
Height
m
Swell
Dir  Spd
kts
Gust
kts
hPa Trend Height
m
Period
s
Dir
27/11:30pm 19.3 NNW 10 17 1017.2 - 0.0 - Cloudy 10 - - - -
27/11:00pm 19.4 NNW 9 15 1017.5 - 0.0 - Cloudy 10 - - - -
27/10:30pm 19.4 NNW 11 18 1017.8 - 0.0 - Partly cloudy 10 - - - -
27/10:00pm 19.3 NNW 8 15 1017.8 - 0.0 - Cloudy 10 - - - -
27/09:30pm 19.5 N 10 21 1018.1 - 0.0 - Cloudy 10 - - - -
27/09:00pm 19.5 N 13 24 1018.0 - 0.0 - Cloudy 10 - - - -
27/08:30pm 19.5 N 9 18 1018.4 - 0.0 - Cloudy 10 - - - -
27/08:00pm 19.3 N 12 18 1018.4 - 0.0 - Mostly cloudy 10 - - - -
27/07:30pm 19.2 N 12 18 1018.4 - 0.0 - Cloudy 10 - - - -
27/07:00pm 19.0 NNE 11 16 1018.6 - 0.0 - Partly cloudy 10 - - - -
27/06:30pm 19.0 NNE 12 16 1018.9 - 0.0 - Partly cloudy 10 - - - -
27/06:00pm 19.1 NNE 9 14 1019.0 - 0.0 - Cloudy 10 - - - -
27/05:30pm 19.0 NNE 11 15 1018.6 - 0.0 - Cloudy 10 - - - -
27/05:00pm 18.9 NNE 10 15 1018.6 - 0.0 - Cloudy 10 - - - -
27/04:30pm 18.8 NNE 11 16 1018.4 - 0.0 - Partly cloudy 10 - - - -
27/04:00pm 18.9 NNE 9 15 1018.4 - 0.0 - Partly cloudy 10 - - - -
27/03:30pm 18.8 NE 10 15 1018.5 - 0.0 - Partly cloudy 10 - - - -
27/03:00pm 18.9 NE 11 17 1018.4 - 0.0 - Partly cloudy 10 - - - -
27/02:30pm 19.0 NE 11 16 1018.5 - 0.0 - Partly cloudy 10 - - - -
27/02:00pm 19.0 NE 12 16 1018.5 - 0.0 - Cloudy 10 - - - -
27/01:30pm 18.9 NE 11 17 1018.5 - 0.0 - Partly cloudy 10 - - - -
27/01:00pm 19.0 NE 11 16 1018.6 - 0.0 - Partly cloudy 10 - - - -
27/12:30pm 19.2 NE 12 17 1018.6 - 0.0 - Partly cloudy 10 - - - -
27/12:00pm 19.6 ENE 12 16 1019.0 - 0.0 - Partly cloudy 10 - - - -
27/11:30am 19.1 NE 11 16 1019.5 - 0.0 - Mostly cloudy 10 - - - -
27/11:00am 20.5 ENE 11 17 1019.6 - 0.0 - Mostly cloudy 10 - - - -
27/10:30am 20.3 ENE 10 14 1020.2 - 0.0 - Mostly clear 10 - - - -
27/10:00am 19.1 ENE 11 14 1020.9 - 0.0 - Mostly clear 10 - - - -
27/09:30am 20.3 ENE 10 14 1021.2 - 0.0 - Mostly clear 10 - - - -
27/09:00am 19.5 ENE 11 15 1021.6 - 0.0 - Mostly clear 10 - - - -
27/08:30am 19.6 ENE 9 14 1021.8 - 0.0 - Mostly clear 10 - - - -
27/08:00am 18.7 ENE 9 13 1022.0 - 0.0 - Cloudy 10 - - - -
27/07:30am 17.5 ENE 7 9 1022.0 - 0.0 - Mostly clear 10 - - - -
27/07:00am 17.1 ENE 5 7 1021.9 - 0.0 - Mostly clear 10 - - - -
27/06:30am 16.1 ENE 6 7 1021.7 - 0.0 - Partly cloudy 10 - - - -
27/06:00am 14.8 ENE 6 6 1021.6 - 0.0 - Partly cloudy 10 - - - -
27/05:30am 14.6 ENE 5 6 1021.3 - 0.0 - Partly cloudy 10 - - - -
27/05:00am 14.5 ENE 5 6 1021.2 - 0.0 - Cloudy 10 - - - -
27/04:30am 14.3 NE 5 6 1021.0 - 0.0 - Partly cloudy 10 - - - -
27/04:00am 14.6 ENE 5 6 1020.6 - 0.0 - Partly cloudy 10 - - - -
27/03:30am 14.4 ENE 6 7 1020.4 - 0.0 - - 10 - - - -
27/03:00am 15.0 ENE 5 6 1020.3 - 0.0 - - 10 - - - -
27/02:30am 14.6 E 6 7 1020.2 - 0.0 - Partly cloudy 10 - - - -
27/02:00am 15.7 ENE 3 4 1021.1 - 0.0 - Cloudy 10 - - - -
27/01:30am 15.5 E 2 5 1020.7 - 0.0 - Partly cloudy 10 - - - -
27/01:00am 15.7 ESE 5 6 1020.8 - 0.0 - Partly cloudy 10 - - - -
27/12:30am 14.7 E 4 5 1020.7 - 0.0 - Partly cloudy 10 - - - -
27/12:00am 15.3 CALM 0 0 1020.7 - 0.0 - - 10 - - - -
 
Date/Time
EST
Temp
°C
Wind Pressure Rain since
9am
mm
Weather Cloud Vis
km
Sea
Height
m
Swell
Dir  Spd
kts
Gust
kts
hPa Trend Height
m
Period
s
Dir
26/11:30pm 14.8 ESE 4 5 1020.4 - 0.0 - Partly cloudy 10 - - - -
26/11:00pm 15.5 ESE 1 4 1020.6 - 0.0 - Cloudy 10 - - - -
26/10:30pm 15.1 ESE 3 4 1020.7 - 0.0 - Partly cloudy 10 - - - -
26/10:00pm 15.2 ESE 1 4 1020.5 - 0.0 - Partly cloudy 10 - - - -
26/09:30pm 15.0 CALM 0 0 1020.5 - 0.0 - Partly cloudy 10 - - - -
26/09:00pm 14.8 ESE 3 5 1020.7 - 0.0 - - 10 - - - -
26/08:30pm 15.2 CALM 0 0 1020.6 - 0.0 - - 10 - - - -
26/08:00pm 14.9 ESE 1 4 1020.5 - 0.0 - - 10 - - - -
26/07:30pm 15.7 SSE 4 5 1020.4 - 0.0 - - 10 - - - -
26/07:00pm 15.6 SSE 2 4 1020.4 - 0.0 - - 9 - - - -

Other Formats:

Comma delimited format used in spreadsheet applications
http://www.bom.gov.au/fwo/IDN60701/IDN60701.94996.axf

JavaScript Object Notation format (JSON) in row-major order
http://www.bom.gov.au/fwo/IDN60701/IDN60701.94996.json